sensor_id;sensor_type;location;lat;lon;timestamp;temperature;humidity
2441;DHT22;1231;53.988;9.470;2024-01-30T00:02:25;7.90;81.40
2441;DHT22;1231;53.988;9.470;2024-01-30T00:05:15;7.90;81.30
2441;DHT22;1231;53.988;9.470;2024-01-30T00:08:04;7.70;81.10
2441;DHT22;1231;53.988;9.470;2024-01-30T00:10:53;7.60;81.20
2441;DHT22;1231;53.988;9.470;2024-01-30T00:13:42;7.50;81.20
2441;DHT22;1231;53.988;9.470;2024-01-30T00:16:31;7.40;81.30
2441;DHT22;1231;53.988;9.470;2024-01-30T00:22:10;7.20;82.00
2441;DHT22;1231;53.988;9.470;2024-01-30T00:25:00;7.10;82.10
2441;DHT22;1231;53.988;9.470;2024-01-30T00:27:49;7.00;82.20
2441;DHT22;1231;53.988;9.470;2024-01-30T00:30:38;7.00;82.40
2441;DHT22;1231;53.988;9.470;2024-01-30T00:33:27;6.90;82.30
2441;DHT22;1231;53.988;9.470;2024-01-30T00:36:16;6.90;82.60
2441;DHT22;1231;53.988;9.470;2024-01-30T00:39:05;6.90;82.40
2441;DHT22;1231;53.988;9.470;2024-01-30T00:41:57;6.90;82.70
2441;DHT22;1231;53.988;9.470;2024-01-30T00:44:47;6.80;82.70
2441;DHT22;1231;53.988;9.470;2024-01-30T00:47:36;6.80;82.70
2441;DHT22;1231;53.988;9.470;2024-01-30T00:50:25;6.80;82.70
2441;DHT22;1231;53.988;9.470;2024-01-30T00:53:14;6.80;82.90
2441;DHT22;1231;53.988;9.470;2024-01-30T00:56:03;6.80;83.10
2441;DHT22;1231;53.988;9.470;2024-01-30T00:58:53;6.80;83.10
2441;DHT22;1231;53.988;9.470;2024-01-30T01:01:42;6.80;83.00
2441;DHT22;1231;53.988;9.470;2024-01-30T01:04:31;6.80;82.90
2441;DHT22;1231;53.988;9.470;2024-01-30T01:07:20;6.80;82.80
2441;DHT22;1231;53.988;9.470;2024-01-30T01:10:09;6.70;82.80
2441;DHT22;1231;53.988;9.470;2024-01-30T01:13:00;6.70;82.90
2441;DHT22;1231;53.988;9.470;2024-01-30T01:15:49;6.70;82.90
2441;DHT22;1231;53.988;9.470;2024-01-30T01:18:38;6.60;82.90
2441;DHT22;1231;53.988;9.470;2024-01-30T01:21:27;6.60;83.00
2441;DHT22;1231;53.988;9.470;2024-01-30T01:24:16;6.60;83.10
2441;DHT22;1231;53.988;9.470;2024-01-30T01:35:39;6.70;83.70
2441;DHT22;1231;53.988;9.470;2024-01-30T01:38:29;6.70;83.80
2441;DHT22;1231;53.988;9.470;2024-01-30T01:41:18;6.80;83.90
2441;DHT22;1231;53.988;9.470;2024-01-30T01:44:08;6.80;84.00
2441;DHT22;1231;53.988;9.470;2024-01-30T01:46:57;6.80;84.10
2441;DHT22;1231;53.988;9.470;2024-01-30T01:49:47;6.90;84.20
2441;DHT22;1231;53.988;9.470;2024-01-30T01:52:37;6.90;84.30
2441;DHT22;1231;53.988;9.470;2024-01-30T01:55:26;6.90;84.40
2441;DHT22;1231;53.988;9.470;2024-01-30T01:58:18;7.00;84.40
2441;DHT22;1231;53.988;9.470;2024-01-30T02:03:59;7.10;84.40
2441;DHT22;1231;53.988;9.470;2024-01-30T02:06:48;7.10;84.40
2441;DHT22;1231;53.988;9.470;2024-01-30T02:12:29;7.20;84.40
2441;DHT22;1231;53.988;9.470;2024-01-30T02:15:18;7.20;84.20
2441;DHT22;1231;53.988;9.470;2024-01-30T02:20:58;7.20;84.10
2441;DHT22;1231;53.988;9.470;2024-01-30T02:23:51;7.20;84.00
2441;DHT22;1231;53.988;9.470;2024-01-30T02:26:41;7.20;83.90
2441;DHT22;1231;53.988;9.470;2024-01-30T02:29:31;7.20;83.70
2441;DHT22;1231;53.988;9.470;2024-01-30T02:35:10;7.20;83.70
2441;DHT22;1231;53.988;9.470;2024-01-30T02:37:59;7.10;83.70
2441;DHT22;1231;53.988;9.470;2024-01-30T02:40:48;7.10;83.60
2441;DHT22;1231;53.988;9.470;2024-01-30T02:46:27;7.00;83.50
2441;DHT22;1231;53.988;9.470;2024-01-30T02:49:16;6.90;83.50
2441;DHT22;1231;53.988;9.470;2024-01-30T02:54:55;6.70;83.50
2441;DHT22;1231;53.988;9.470;2024-01-30T02:57:44;6.60;83.50
2441;DHT22;1231;53.988;9.470;2024-01-30T03:00:33;6.60;83.40
2441;DHT22;1231;53.988;9.470;2024-01-30T03:03:23;6.50;83.50
2441;DHT22;1231;53.988;9.470;2024-01-30T03:06:12;6.40;83.60
2441;DHT22;1231;53.988;9.470;2024-01-30T03:09:01;6.30;83.80
2441;DHT22;1231;53.988;9.470;2024-01-30T03:17:29;6.10;83.60
2441;DHT22;1231;53.988;9.470;2024-01-30T03:20:18;6.10;83.60
2441;DHT22;1231;53.988;9.470;2024-01-30T03:23:07;6.00;83.60
2441;DHT22;1231;53.988;9.470;2024-01-30T03:28:46;5.90;83.80
2441;DHT22;1231;53.988;9.470;2024-01-30T03:31:35;5.80;83.90
2441;DHT22;1231;53.988;9.470;2024-01-30T03:34:24;5.80;84.10
2441;DHT22;1231;53.988;9.470;2024-01-30T03:37:13;5.80;84.20
2441;DHT22;1231;53.988;9.470;2024-01-30T03:40:03;5.80;84.20
2441;DHT22;1231;53.988;9.470;2024-01-30T03:42:52;5.70;84.30
2441;DHT22;1231;53.988;9.470;2024-01-30T03:45:41;5.70;84.40
2441;DHT22;1231;53.988;9.470;2024-01-30T03:51:20;5.60;84.50
2441;DHT22;1231;53.988;9.470;2024-01-30T03:54:09;5.60;84.60
2441;DHT22;1231;53.988;9.470;2024-01-30T03:59:48;5.60;84.50
2441;DHT22;1231;53.988;9.470;2024-01-30T04:02:37;5.60;84.50
2441;DHT22;1231;53.988;9.470;2024-01-30T04:05:26;5.60;84.60
2441;DHT22;1231;53.988;9.470;2024-01-30T04:08:15;5.60;84.60
2441;DHT22;1231;53.988;9.470;2024-01-30T04:11:05;5.50;84.70
2441;DHT22;1231;53.988;9.470;2024-01-30T04:16:44;5.50;84.60
2441;DHT22;1231;53.988;9.470;2024-01-30T04:19:37;5.50;84.60
2441;DHT22;1231;53.988;9.470;2024-01-30T04:22:27;5.50;84.60
2441;DHT22;1231;53.988;9.470;2024-01-30T04:25:16;5.50;85.00
2441;DHT22;1231;53.988;9.470;2024-01-30T04:28:05;5.50;85.00
2441;DHT22;1231;53.988;9.470;2024-01-30T04:30:54;5.50;85.00
2441;DHT22;1231;53.988;9.470;2024-01-30T04:33:44;5.50;85.10
2441;DHT22;1231;53.988;9.470;2024-01-30T04:36:33;5.50;85.10
2441;DHT22;1231;53.988;9.470;2024-01-30T04:39:22;5.50;85.10
2441;DHT22;1231;53.988;9.470;2024-01-30T04:42:11;5.50;85.10
2441;DHT22;1231;53.988;9.470;2024-01-30T04:45:00;5.50;85.20
2441;DHT22;1231;53.988;9.470;2024-01-30T04:47:49;5.50;85.30
2441;DHT22;1231;53.988;9.470;2024-01-30T04:50:38;5.50;85.40
2441;DHT22;1231;53.988;9.470;2024-01-30T04:53:27;5.50;85.40
2441;DHT22;1231;53.988;9.470;2024-01-30T04:56:16;5.60;85.50
2441;DHT22;1231;53.988;9.470;2024-01-30T04:59:06;5.60;85.50
2441;DHT22;1231;53.988;9.470;2024-01-30T05:01:57;5.60;85.50
2441;DHT22;1231;53.988;9.470;2024-01-30T05:04:46;5.70;85.40
2441;DHT22;1231;53.988;9.470;2024-01-30T05:07:35;5.60;85.40
2441;DHT22;1231;53.988;9.470;2024-01-30T05:13:13;5.60;85.40
2441;DHT22;1231;53.988;9.470;2024-01-30T05:16:03;5.60;85.50
2441;DHT22;1231;53.988;9.470;2024-01-30T05:18:53;5.60;85.40
2441;DHT22;1231;53.988;9.470;2024-01-30T05:21:42;5.70;85.50
2441;DHT22;1231;53.988;9.470;2024-01-30T05:24:31;5.70;85.50
2441;DHT22;1231;53.988;9.470;2024-01-30T05:27:21;5.70;85.40
2441;DHT22;1231;53.988;9.470;2024-01-30T05:30:10;5.70;85.40
2441;DHT22;1231;53.988;9.470;2024-01-30T05:35:49;5.80;85.40
2441;DHT22;1231;53.988;9.470;2024-01-30T05:38:38;5.80;85.50
2441;DHT22;1231;53.988;9.470;2024-01-30T05:44:17;5.90;85.50
2441;DHT22;1231;53.988;9.470;2024-01-30T05:47:06;5.90;85.40
2441;DHT22;1231;53.988;9.470;2024-01-30T05:49:56;6.00;85.30
2441;DHT22;1231;53.988;9.470;2024-01-30T05:52:45;6.00;85.40
2441;DHT22;1231;53.988;9.470;2024-01-30T05:55:34;6.00;85.40
2441;DHT22;1231;53.988;9.470;2024-01-30T05:58:23;6.00;85.40
2441;DHT22;1231;53.988;9.470;2024-01-30T06:01:12;6.10;85.40
2441;DHT22;1231;53.988;9.470;2024-01-30T06:04:01;6.10;85.40
2441;DHT22;1231;53.988;9.470;2024-01-30T06:06:50;6.10;85.50
2441;DHT22;1231;53.988;9.470;2024-01-30T06:09:39;6.10;85.60
2441;DHT22;1231;53.988;9.470;2024-01-30T06:12:29;6.10;85.70
2441;DHT22;1231;53.988;9.470;2024-01-30T06:15:18;6.10;85.70
2441;DHT22;1231;53.988;9.470;2024-01-30T06:18:07;6.10;85.80
2441;DHT22;1231;53.988;9.470;2024-01-30T06:23:46;6.20;85.70
2441;DHT22;1231;53.988;9.470;2024-01-30T06:26:36;6.20;85.60
2441;DHT22;1231;53.988;9.470;2024-01-30T06:29:26;6.20;85.50
2441;DHT22;1231;53.988;9.470;2024-01-30T06:32:15;6.20;85.60
2441;DHT22;1231;53.988;9.470;2024-01-30T06:35:05;6.20;85.50
2441;DHT22;1231;53.988;9.470;2024-01-30T06:37:55;6.20;85.50
2441;DHT22;1231;53.988;9.470;2024-01-30T06:40:44;6.20;85.40
2441;DHT22;1231;53.988;9.470;2024-01-30T06:43:33;6.20;85.40
2441;DHT22;1231;53.988;9.470;2024-01-30T06:46:22;6.20;85.50
2441;DHT22;1231;53.988;9.470;2024-01-30T06:49:11;6.20;85.60
2441;DHT22;1231;53.988;9.470;2024-01-30T06:52:01;6.20;85.70
2441;DHT22;1231;53.988;9.470;2024-01-30T06:54:50;6.30;85.80
2441;DHT22;1231;53.988;9.470;2024-01-30T06:57:39;6.30;85.80
2441;DHT22;1231;53.988;9.470;2024-01-30T07:00:28;6.30;85.90
2441;DHT22;1231;53.988;9.470;2024-01-30T07:03:17;6.40;86.00
2441;DHT22;1231;53.988;9.470;2024-01-30T07:06:06;6.40;86.00
2441;DHT22;1231;53.988;9.470;2024-01-30T07:11:45;6.50;86.10
2441;DHT22;1231;53.988;9.470;2024-01-30T07:17:24;6.70;86.10
2441;DHT22;1231;53.988;9.470;2024-01-30T07:20:14;6.70;86.10
2441;DHT22;1231;53.988;9.470;2024-01-30T07:23:03;6.70;86.10
2441;DHT22;1231;53.988;9.470;2024-01-30T07:25:52;6.70;86.10
2441;DHT22;1231;53.988;9.470;2024-01-30T07:31:32;6.80;86.20
2441;DHT22;1231;53.988;9.470;2024-01-30T07:34:21;6.90;86.30
2441;DHT22;1231;53.988;9.470;2024-01-30T07:40:05;7.00;86.30
2441;DHT22;1231;53.988;9.470;2024-01-30T07:42:55;7.10;86.30
2441;DHT22;1231;53.988;9.470;2024-01-30T07:45:44;7.20;86.30
2441;DHT22;1231;53.988;9.470;2024-01-30T07:48:33;7.20;86.30
2441;DHT22;1231;53.988;9.470;2024-01-30T07:51:24;7.30;86.20
2441;DHT22;1231;53.988;9.470;2024-01-30T07:54:13;7.30;86.20
2441;DHT22;1231;53.988;9.470;2024-01-30T07:57:03;7.40;86.00
2441;DHT22;1231;53.988;9.470;2024-01-30T07:59:52;7.50;85.90
2441;DHT22;1231;53.988;9.470;2024-01-30T08:02:41;7.50;85.90
2441;DHT22;1231;53.988;9.470;2024-01-30T08:05:31;7.60;85.90
2441;DHT22;1231;53.988;9.470;2024-01-30T08:08:20;7.60;85.90
2441;DHT22;1231;53.988;9.470;2024-01-30T08:13:58;7.70;85.80
2441;DHT22;1231;53.988;9.470;2024-01-30T08:16:47;7.80;85.80
2441;DHT22;1231;53.988;9.470;2024-01-30T08:19:37;7.80;85.80
2441;DHT22;1231;53.988;9.470;2024-01-30T08:22:26;7.90;85.80
2441;DHT22;1231;53.988;9.470;2024-01-30T08:25:15;7.90;85.80
2441;DHT22;1231;53.988;9.470;2024-01-30T08:30:54;8.10;85.60
2441;DHT22;1231;53.988;9.470;2024-01-30T08:39:22;8.30;85.50
2441;DHT22;1231;53.988;9.470;2024-01-30T08:42:11;8.30;85.40
2441;DHT22;1231;53.988;9.470;2024-01-30T08:45:00;8.40;85.40
2441;DHT22;1231;53.988;9.470;2024-01-30T08:47:49;8.50;85.40
2441;DHT22;1231;53.988;9.470;2024-01-30T08:50:39;8.60;85.30
2441;DHT22;1231;53.988;9.470;2024-01-30T08:56:17;8.70;85.10
2441;DHT22;1231;53.988;9.470;2024-01-30T09:01:56;8.90;84.70
2441;DHT22;1231;53.988;9.470;2024-01-30T09:04:47;9.00;84.40
2441;DHT22;1231;53.988;9.470;2024-01-30T09:07:36;9.00;84.20
2441;DHT22;1231;53.988;9.470;2024-01-30T09:10:25;9.10;84.00
2441;DHT22;1231;53.988;9.470;2024-01-30T09:13:15;9.10;83.90
2441;DHT22;1231;53.988;9.470;2024-01-30T09:16:05;9.10;83.90
2441;DHT22;1231;53.988;9.470;2024-01-30T09:21:44;9.20;83.70
2441;DHT22;1231;53.988;9.470;2024-01-30T09:27:23;9.30;83.50
2441;DHT22;1231;53.988;9.470;2024-01-30T09:30:12;9.30;83.40
2441;DHT22;1231;53.988;9.470;2024-01-30T09:33:02;9.40;83.30
2441;DHT22;1231;53.988;9.470;2024-01-30T09:35:51;9.40;83.30
2441;DHT22;1231;53.988;9.470;2024-01-30T09:38:41;9.40;83.00
2441;DHT22;1231;53.988;9.470;2024-01-30T09:41:32;9.50;83.00
2441;DHT22;1231;53.988;9.470;2024-01-30T09:44:23;9.50;82.90
2441;DHT22;1231;53.988;9.470;2024-01-30T09:47:16;9.60;82.90
2441;DHT22;1231;53.988;9.470;2024-01-30T09:50:06;9.70;82.80
2441;DHT22;1231;53.988;9.470;2024-01-30T09:52:56;9.70;82.60
2441;DHT22;1231;53.988;9.470;2024-01-30T09:55:47;9.80;82.60
2441;DHT22;1231;53.988;9.470;2024-01-30T09:58:38;9.90;82.40
2441;DHT22;1231;53.988;9.470;2024-01-30T10:01:28;10.00;82.30
2441;DHT22;1231;53.988;9.470;2024-01-30T10:04:17;10.00;82.20
2441;DHT22;1231;53.988;9.470;2024-01-30T10:07:07;10.10;82.00
2441;DHT22;1231;53.988;9.470;2024-01-30T10:09:57;10.20;81.90
2441;DHT22;1231;53.988;9.470;2024-01-30T10:12:46;10.30;81.70
2441;DHT22;1231;53.988;9.470;2024-01-30T10:15:37;10.30;81.40
2441;DHT22;1231;53.988;9.470;2024-01-30T10:21:18;10.50;81.00
2441;DHT22;1231;53.988;9.470;2024-01-30T10:24:07;10.60;80.90
2441;DHT22;1231;53.988;9.470;2024-01-30T10:26:56;10.70;80.80
2441;DHT22;1231;53.988;9.470;2024-01-30T10:29:48;10.70;80.70
2441;DHT22;1231;53.988;9.470;2024-01-30T10:35:27;10.80;80.40
2441;DHT22;1231;53.988;9.470;2024-01-30T10:38:18;10.90;80.20
2441;DHT22;1231;53.988;9.470;2024-01-30T10:41:11;10.90;80.00
2441;DHT22;1231;53.988;9.470;2024-01-30T10:44:08;10.90;79.90
2441;DHT22;1231;53.988;9.470;2024-01-30T10:47:01;10.90;79.80
2441;DHT22;1231;53.988;9.470;2024-01-30T10:49:52;10.90;79.80
2441;DHT22;1231;53.988;9.470;2024-01-30T10:55:33;10.80;79.80
2441;DHT22;1231;53.988;9.470;2024-01-30T11:01:13;10.80;79.80
2441;DHT22;1231;53.988;9.470;2024-01-30T11:04:03;10.70;79.80
2441;DHT22;1231;53.988;9.470;2024-01-30T11:06:52;10.80;79.90
2441;DHT22;1231;53.988;9.470;2024-01-30T11:10:09;10.70;79.90
2441;DHT22;1231;53.988;9.470;2024-01-30T11:13:10;10.80;79.90
2441;DHT22;1231;53.988;9.470;2024-01-30T11:16:06;10.80;79.90
2441;DHT22;1231;53.988;9.470;2024-01-30T11:19:00;10.80;80.00
2441;DHT22;1231;53.988;9.470;2024-01-30T11:21:50;10.80;80.00
2441;DHT22;1231;53.988;9.470;2024-01-30T11:24:42;10.80;80.00
2441;DHT22;1231;53.988;9.470;2024-01-30T11:27:32;10.80;80.00
2441;DHT22;1231;53.988;9.470;2024-01-30T11:30:31;10.80;79.90
2441;DHT22;1231;53.988;9.470;2024-01-30T11:33:30;10.90;79.90
2441;DHT22;1231;53.988;9.470;2024-01-30T11:36:25;10.90;79.80
2441;DHT22;1231;53.988;9.470;2024-01-30T11:39:17;11.00;79.70
2441;DHT22;1231;53.988;9.470;2024-01-30T11:42:09;11.00;79.70
2441;DHT22;1231;53.988;9.470;2024-01-30T11:45:00;11.00;79.60
2441;DHT22;1231;53.988;9.470;2024-01-30T11:47:50;11.00;79.70
2441;DHT22;1231;53.988;9.470;2024-01-30T11:50:40;11.00;79.80
2441;DHT22;1231;53.988;9.470;2024-01-30T11:53:29;11.10;79.90
2441;DHT22;1231;53.988;9.470;2024-01-30T12:01:57;11.10;80.00
2441;DHT22;1231;53.988;9.470;2024-01-30T12:04:46;11.10;80.00
2441;DHT22;1231;53.988;9.470;2024-01-30T12:07:36;11.20;80.00
2441;DHT22;1231;53.988;9.470;2024-01-30T12:13:16;11.20;80.00
2441;DHT22;1231;53.988;9.470;2024-01-30T12:16:06;11.30;80.10
2441;DHT22;1231;53.988;9.470;2024-01-30T12:19:01;11.30;80.00
2441;DHT22;1231;53.988;9.470;2024-01-30T12:21:57;11.30;80.00
2441;DHT22;1231;53.988;9.470;2024-01-30T12:24:47;11.30;80.10
2441;DHT22;1231;53.988;9.470;2024-01-30T12:27:38;11.40;80.10
2441;DHT22;1231;53.988;9.470;2024-01-30T12:30:27;11.40;80.10
2441;DHT22;1231;53.988;9.470;2024-01-30T12:33:17;11.50;80.00
2441;DHT22;1231;53.988;9.470;2024-01-30T12:36:11;11.50;79.90
2441;DHT22;1231;53.988;9.470;2024-01-30T12:39:01;11.50;79.80
2441;DHT22;1231;53.988;9.470;2024-01-30T12:41:50;11.40;79.80
2441;DHT22;1231;53.988;9.470;2024-01-30T12:44:41;11.40;79.70
2441;DHT22;1231;53.988;9.470;2024-01-30T12:47:30;11.40;79.70
2441;DHT22;1231;53.988;9.470;2024-01-30T12:53:11;11.40;79.70
2441;DHT22;1231;53.988;9.470;2024-01-30T12:56:01;11.40;79.70
2441;DHT22;1231;53.988;9.470;2024-01-30T12:58:50;11.40;79.80
2441;DHT22;1231;53.988;9.470;2024-01-30T13:01:39;11.40;79.80
2441;DHT22;1231;53.988;9.470;2024-01-30T13:04:29;11.40;79.90
2441;DHT22;1231;53.988;9.470;2024-01-30T13:10:10;11.40;80.00
2441;DHT22;1231;53.988;9.470;2024-01-30T13:12:59;11.50;80.10
2441;DHT22;1231;53.988;9.470;2024-01-30T13:15:48;11.50;80.10
2441;DHT22;1231;53.988;9.470;2024-01-30T13:18:37;11.50;80.10
2441;DHT22;1231;53.988;9.470;2024-01-30T13:24:16;11.60;79.90
2441;DHT22;1231;53.988;9.470;2024-01-30T13:27:06;11.60;79.90
2441;DHT22;1231;53.988;9.470;2024-01-30T13:35:35;11.60;79.90
2441;DHT22;1231;53.988;9.470;2024-01-30T13:38:24;11.50;79.90
2441;DHT22;1231;53.988;9.470;2024-01-30T13:41:13;11.50;79.90
2441;DHT22;1231;53.988;9.470;2024-01-30T13:44:03;11.60;79.90
2441;DHT22;1231;53.988;9.470;2024-01-30T13:52:33;11.50;79.90
2441;DHT22;1231;53.988;9.470;2024-01-30T13:55:23;11.50;80.00
2441;DHT22;1231;53.988;9.470;2024-01-30T14:01:02;11.60;80.00
2441;DHT22;1231;53.988;9.470;2024-01-30T14:06:41;11.60;80.00
2441;DHT22;1231;53.988;9.470;2024-01-30T14:09:30;11.60;80.00
2441;DHT22;1231;53.988;9.470;2024-01-30T14:12:21;11.60;80.00
2441;DHT22;1231;53.988;9.470;2024-01-30T14:15:10;11.60;80.00
2441;DHT22;1231;53.988;9.470;2024-01-30T14:18:01;11.60;80.00
2441;DHT22;1231;53.988;9.470;2024-01-30T14:20:50;11.60;80.00
2441;DHT22;1231;53.988;9.470;2024-01-30T14:23:40;11.60;79.90
2441;DHT22;1231;53.988;9.470;2024-01-30T14:26:29;11.50;80.00
2441;DHT22;1231;53.988;9.470;2024-01-30T14:29:18;11.50;80.00
2441;DHT22;1231;53.988;9.470;2024-01-30T14:32:07;11.50;80.00
2441;DHT22;1231;53.988;9.470;2024-01-30T14:34:56;11.50;80.10
2441;DHT22;1231;53.988;9.470;2024-01-30T14:40:34;11.40;80.10
2441;DHT22;1231;53.988;9.470;2024-01-30T14:43:24;11.40;80.20
2441;DHT22;1231;53.988;9.470;2024-01-30T14:49:03;11.30;80.30
2441;DHT22;1231;53.988;9.470;2024-01-30T14:54:44;11.20;80.50
2441;DHT22;1231;53.988;9.470;2024-01-30T14:57:33;11.20;80.50
2441;DHT22;1231;53.988;9.470;2024-01-30T15:00:23;11.20;80.60
2441;DHT22;1231;53.988;9.470;2024-01-30T15:03:12;11.20;80.60
2441;DHT22;1231;53.988;9.470;2024-01-30T15:06:01;11.10;80.60
2441;DHT22;1231;53.988;9.470;2024-01-30T15:08:52;11.10;80.70
2441;DHT22;1231;53.988;9.470;2024-01-30T15:11:44;11.10;80.80
2441;DHT22;1231;53.988;9.470;2024-01-30T15:23:02;11.00;81.00
2441;DHT22;1231;53.988;9.470;2024-01-30T15:25:51;11.00;81.00
2441;DHT22;1231;53.988;9.470;2024-01-30T15:31:30;11.00;81.20
2441;DHT22;1231;53.988;9.470;2024-01-30T15:37:09;11.00;81.40
2441;DHT22;1231;53.988;9.470;2024-01-30T15:42:48;10.90;81.60
2441;DHT22;1231;53.988;9.470;2024-01-30T15:45:37;11.00;81.60
2441;DHT22;1231;53.988;9.470;2024-01-30T15:48:27;10.90;81.70
2441;DHT22;1231;53.988;9.470;2024-01-30T15:51:16;10.90;81.70
2441;DHT22;1231;53.988;9.470;2024-01-30T15:56:55;10.90;81.70
2441;DHT22;1231;53.988;9.470;2024-01-30T15:59:44;10.80;81.80
2441;DHT22;1231;53.988;9.470;2024-01-30T16:02:33;10.80;81.80
2441;DHT22;1231;53.988;9.470;2024-01-30T16:08:12;10.80;81.90
2441;DHT22;1231;53.988;9.470;2024-01-30T16:11:01;10.70;82.00
2441;DHT22;1231;53.988;9.470;2024-01-30T16:16:41;10.70;82.20
2441;DHT22;1231;53.988;9.470;2024-01-30T16:19:30;10.70;82.20
2441;DHT22;1231;53.988;9.470;2024-01-30T16:22:21;10.70;82.30
2441;DHT22;1231;53.988;9.470;2024-01-30T16:25:10;10.70;82.50
2441;DHT22;1231;53.988;9.470;2024-01-30T16:28:00;10.70;82.60
2441;DHT22;1231;53.988;9.470;2024-01-30T16:30:49;10.70;82.60
2441;DHT22;1231;53.988;9.470;2024-01-30T16:33:38;10.70;83.00
2441;DHT22;1231;53.988;9.470;2024-01-30T16:36:29;10.70;83.30
2441;DHT22;1231;53.988;9.470;2024-01-30T16:39:18;10.70;83.60
2441;DHT22;1231;53.988;9.470;2024-01-30T16:42:07;10.80;83.90
2441;DHT22;1231;53.988;9.470;2024-01-30T16:44:56;10.80;84.10
2441;DHT22;1231;53.988;9.470;2024-01-30T16:50:34;10.90;83.50
2441;DHT22;1231;53.988;9.470;2024-01-30T16:53:23;10.90;83.20
2441;DHT22;1231;53.988;9.470;2024-01-30T16:56:12;10.90;83.00
2441;DHT22;1231;53.988;9.470;2024-01-30T16:59:02;11.00;82.70
2441;DHT22;1231;53.988;9.470;2024-01-30T17:07:30;11.00;82.20
2441;DHT22;1231;53.988;9.470;2024-01-30T17:10:24;11.00;82.10
2441;DHT22;1231;53.988;9.470;2024-01-30T17:13:13;11.00;82.00
2441;DHT22;1231;53.988;9.470;2024-01-30T17:16:02;11.00;81.90
2441;DHT22;1231;53.988;9.470;2024-01-30T17:18:52;11.00;81.70
2441;DHT22;1231;53.988;9.470;2024-01-30T17:24:30;11.00;81.40
2441;DHT22;1231;53.988;9.470;2024-01-30T17:27:19;11.00;81.30
2441;DHT22;1231;53.988;9.470;2024-01-30T17:30:12;11.00;81.20
2441;DHT22;1231;53.988;9.470;2024-01-30T17:33:01;11.00;80.80
2441;DHT22;1231;53.988;9.470;2024-01-30T17:35:50;11.00;80.50
2441;DHT22;1231;53.988;9.470;2024-01-30T17:38:39;11.00;80.30
2441;DHT22;1231;53.988;9.470;2024-01-30T17:41:28;11.00;80.20
2441;DHT22;1231;53.988;9.470;2024-01-30T17:47:09;11.00;80.10
2441;DHT22;1231;53.988;9.470;2024-01-30T17:49:58;11.00;80.00
2441;DHT22;1231;53.988;9.470;2024-01-30T17:52:47;11.00;80.00
2441;DHT22;1231;53.988;9.470;2024-01-30T17:55:37;11.10;79.80
2441;DHT22;1231;53.988;9.470;2024-01-30T17:58:26;11.10;79.90
2441;DHT22;1231;53.988;9.470;2024-01-30T18:01:15;11.10;79.90
2441;DHT22;1231;53.988;9.470;2024-01-30T18:06:54;11.10;79.80
2441;DHT22;1231;53.988;9.470;2024-01-30T18:09:44;11.10;79.90
2441;DHT22;1231;53.988;9.470;2024-01-30T18:12:34;11.10;80.00
2441;DHT22;1231;53.988;9.470;2024-01-30T18:15:24;11.10;80.10
2441;DHT22;1231;53.988;9.470;2024-01-30T18:21:02;11.00;80.50
2441;DHT22;1231;53.988;9.470;2024-01-30T18:26:41;10.90;81.30
2441;DHT22;1231;53.988;9.470;2024-01-30T18:32:20;10.80;82.00
2441;DHT22;1231;53.988;9.470;2024-01-30T18:35:11;10.80;82.30
2441;DHT22;1231;53.988;9.470;2024-01-30T18:38:00;10.80;82.60
2441;DHT22;1231;53.988;9.470;2024-01-30T18:40:52;10.70;83.00
2441;DHT22;1231;53.988;9.470;2024-01-30T18:43:41;10.70;83.30
2441;DHT22;1231;53.988;9.470;2024-01-30T18:46:31;10.60;83.50
2441;DHT22;1231;53.988;9.470;2024-01-30T18:49:20;10.60;83.80
2441;DHT22;1231;53.988;9.470;2024-01-30T18:52:09;10.50;83.90
2441;DHT22;1231;53.988;9.470;2024-01-30T19:00:37;10.50;84.50
2441;DHT22;1231;53.988;9.470;2024-01-30T19:03:27;10.50;84.80
2441;DHT22;1231;53.988;9.470;2024-01-30T19:06:18;10.40;84.90
2441;DHT22;1231;53.988;9.470;2024-01-30T19:09:08;10.40;85.10
2441;DHT22;1231;53.988;9.470;2024-01-30T19:14:47;10.40;85.50
2441;DHT22;1231;53.988;9.470;2024-01-30T19:17:37;10.40;85.60
2441;DHT22;1231;53.988;9.470;2024-01-30T19:20:29;10.40;85.80
2441;DHT22;1231;53.988;9.470;2024-01-30T19:23:18;10.30;85.90
2441;DHT22;1231;53.988;9.470;2024-01-30T19:26:08;10.30;86.00
2441;DHT22;1231;53.988;9.470;2024-01-30T19:28:57;10.30;86.00
2441;DHT22;1231;53.988;9.470;2024-01-30T19:31:47;10.30;86.10
2441;DHT22;1231;53.988;9.470;2024-01-30T19:34:36;10.30;86.20
2441;DHT22;1231;53.988;9.470;2024-01-30T19:40:15;10.30;86.40
2441;DHT22;1231;53.988;9.470;2024-01-30T19:45:54;10.30;86.50
2441;DHT22;1231;53.988;9.470;2024-01-30T19:54:22;10.30;86.70
2441;DHT22;1231;53.988;9.470;2024-01-30T19:57:16;10.30;86.80
2441;DHT22;1231;53.988;9.470;2024-01-30T20:00:06;10.30;86.90
2441;DHT22;1231;53.988;9.470;2024-01-30T20:05:48;10.30;86.80
2441;DHT22;1231;53.988;9.470;2024-01-30T20:08:38;10.30;87.00
2441;DHT22;1231;53.988;9.470;2024-01-30T20:11:27;10.30;87.20
2441;DHT22;1231;53.988;9.470;2024-01-30T20:17:06;10.20;87.20
2441;DHT22;1231;53.988;9.470;2024-01-30T20:22:46;10.20;87.20
2441;DHT22;1231;53.988;9.470;2024-01-30T20:25:35;10.10;87.20
2441;DHT22;1231;53.988;9.470;2024-01-30T20:28:24;10.00;87.30
2441;DHT22;1231;53.988;9.470;2024-01-30T20:31:14;10.00;87.30
2441;DHT22;1231;53.988;9.470;2024-01-30T20:34:03;9.90;87.30
2441;DHT22;1231;53.988;9.470;2024-01-30T20:39:42;9.80;87.50
2441;DHT22;1231;53.988;9.470;2024-01-30T20:42:31;9.70;87.70
2441;DHT22;1231;53.988;9.470;2024-01-30T20:45:20;9.70;87.70
2441;DHT22;1231;53.988;9.470;2024-01-30T20:48:09;9.60;87.80
2441;DHT22;1231;53.988;9.470;2024-01-30T20:50:58;9.60;87.80
2441;DHT22;1231;53.988;9.470;2024-01-30T20:53:47;9.50;87.90
2441;DHT22;1231;53.988;9.470;2024-01-30T20:56:36;9.50;87.80
2441;DHT22;1231;53.988;9.470;2024-01-30T20:59:25;9.50;87.80
2441;DHT22;1231;53.988;9.470;2024-01-30T21:02:14;9.50;87.90
2441;DHT22;1231;53.988;9.470;2024-01-30T21:05:04;9.40;87.90
2441;DHT22;1231;53.988;9.470;2024-01-30T21:07:53;9.40;88.10
2441;DHT22;1231;53.988;9.470;2024-01-30T21:10:43;9.30;88.20
2441;DHT22;1231;53.988;9.470;2024-01-30T21:22:00;9.10;88.50
2441;DHT22;1231;53.988;9.470;2024-01-30T21:24:49;9.10;88.60
2441;DHT22;1231;53.988;9.470;2024-01-30T21:30:30;9.00;88.80
2441;DHT22;1231;53.988;9.470;2024-01-30T21:33:19;9.00;88.90
2441;DHT22;1231;53.988;9.470;2024-01-30T21:36:08;8.90;89.00
2441;DHT22;1231;53.988;9.470;2024-01-30T21:38:57;8.90;89.00
2441;DHT22;1231;53.988;9.470;2024-01-30T21:41:46;8.90;89.10
2441;DHT22;1231;53.988;9.470;2024-01-30T21:44:35;8.90;89.00
2441;DHT22;1231;53.988;9.470;2024-01-30T21:50:17;8.80;89.00
2441;DHT22;1231;53.988;9.470;2024-01-30T21:53:07;8.80;89.00
2441;DHT22;1231;53.988;9.470;2024-01-30T21:55:56;8.70;89.10
2441;DHT22;1231;53.988;9.470;2024-01-30T22:01:35;8.60;89.00
2441;DHT22;1231;53.988;9.470;2024-01-30T22:10:05;8.50;89.00
2441;DHT22;1231;53.988;9.470;2024-01-30T22:12:54;8.50;89.10
2441;DHT22;1231;53.988;9.470;2024-01-30T22:18:33;8.40;89.10
2441;DHT22;1231;53.988;9.470;2024-01-30T22:24:11;8.30;89.00
2441;DHT22;1231;53.988;9.470;2024-01-30T22:29:51;8.30;89.10
2441;DHT22;1231;53.988;9.470;2024-01-30T22:32:40;8.20;89.10
2441;DHT22;1231;53.988;9.470;2024-01-30T22:35:29;8.20;89.30
2441;DHT22;1231;53.988;9.470;2024-01-30T22:38:18;8.20;89.20
2441;DHT22;1231;53.988;9.470;2024-01-30T22:41:08;8.10;89.30
2441;DHT22;1231;53.988;9.470;2024-01-30T22:43:58;8.10;89.30
2441;DHT22;1231;53.988;9.470;2024-01-30T22:49:36;8.00;89.70
2441;DHT22;1231;53.988;9.470;2024-01-30T22:52:25;8.00;89.70
2441;DHT22;1231;53.988;9.470;2024-01-30T22:55:14;8.00;89.60
2441;DHT22;1231;53.988;9.470;2024-01-30T22:58:03;8.00;89.60